Time,TemperatureF,DewpointF,PressureIn,WindDirection,WindDirectionDegrees,WindSpeedMPH,WindSpeedGustMPH,Humidity,HourlyPrecipIn,Conditions,Clouds,dailyrainin,SoftwareType,DateUTC
2013-10-18 00:24:00,73.0,72.0,29.94,North,0,0.0,0.0,96,99.99,,,-99.99,,2013-10-18 04:24:00,
2013-10-18 00:53:00,73.0,72.0,29.93,ESE,114,1.0,5.0,98,99.99,,,-99.99,,2013-10-18 04:53:00,
2013-10-18 01:23:00,73.0,73.0,29.93,SSE,152,2.0,4.0,100,99.99,,,-99.99,,2013-10-18 05:23:00,
2013-10-18 01:52:00,72.0,72.0,29.93,SSE,153,0.0,2.0,100,99.99,,,-99.99,,2013-10-18 05:52:00,
2013-10-18 02:22:00,72.0,72.0,29.93,North,0,0.0,0.0,100,99.99,,,-99.99,,2013-10-18 06:22:00,
2013-10-18 02:52:00,71.0,71.0,29.92,North,0,0.0,0.0,100,99.99,,,-99.99,,2013-10-18 06:52:00,
2013-10-18 03:22:00,70.0,70.0,29.92,North,0,0.0,0.0,100,99.99,,,-99.99,,2013-10-18 07:22:00,
2013-10-18 03:52:00,70.0,70.0,29.92,North,0,0.0,0.0,100,99.99,,,-99.99,,2013-10-18 07:52:00,
2013-10-18 04:22:00,70.0,70.0,29.92,North,0,0.0,0.0,100,99.99,,,-99.99,,2013-10-18 08:22:00,
2013-10-18 04:42:00,69.0,69.0,29.92,North,0,0.0,0.0,100,99.99,,,-99.99,,2013-10-18 08:42:00,
2013-10-18 04:52:00,69.0,69.0,29.92,North,0,0.0,0.0,100,99.99,,,-99.99,,2013-10-18 08:52:00,
2013-10-18 05:21:00,68.0,68.0,29.92,North,0,0.0,0.0,100,99.99,,,-99.99,,2013-10-18 09:21:00,
2013-10-18 05:53:00,68.0,68.0,29.93,North,0,0.0,0.0,100,99.99,,,-99.99,,2013-10-18 09:53:00,
2013-10-18 06:23:00,68.0,68.0,29.93,North,0,0.0,0.0,100,99.99,,,-99.99,,2013-10-18 10:23:00,
2013-10-18 06:53:00,68.0,68.0,29.94,North,0,0.0,0.0,100,99.99,,,-99.99,,2013-10-18 10:53:00,
2013-10-18 07:22:00,68.0,68.0,29.95,North,0,0.0,0.0,100,99.99,,,-99.99,,2013-10-18 11:22:00,
2013-10-18 07:52:00,67.0,67.0,29.96,North,0,0.0,0.0,100,99.99,,,-99.99,,2013-10-18 11:52:00,
2013-10-18 08:22:00,67.0,67.0,29.96,North,0,0.0,0.0,100,99.99,,,-99.99,,2013-10-18 12:22:00,
2013-10-18 08:52:00,69.0,69.0,29.98,North,0,0.0,0.0,100,99.99,,,-99.99,,2013-10-18 12:52:00,
2013-10-18 09:22:00,74.0,74.0,29.98,North,0,0.0,0.0,100,99.99,,,-99.99,,2013-10-18 13:22:00,
2013-10-18 09:52:00,77.0,77.0,29.99,North,0,0.0,0.0,100,99.99,,,-99.99,,2013-10-18 13:52:00,
2013-10-18 10:22:00,80.0,77.0,29.99,North,0,0.0,0.0,92,99.99,,,-99.99,,2013-10-18 14:22:00,
2013-10-18 10:52:00,83.0,70.0,29.99,SSW,197,0.0,3.0,65,99.99,,,-99.99,,2013-10-18 14:52:00,
2013-10-18 11:22:00,86.0,68.0,30.00,SE,128,3.0,7.0,56,99.99,,,-99.99,,2013-10-18 15:22:00,
2013-10-18 11:54:00,87.0,68.0,29.99,SW,224,4.0,8.0,54,99.99,,,-99.99,,2013-10-18 15:54:00,
2013-10-18 12:24:00,87.0,68.0,29.98,South,183,1.0,3.0,53,99.99,,,-99.99,,2013-10-18 16:24:00,
2013-10-18 12:53:00,89.0,67.0,29.97,South,186,1.0,6.0,49,99.99,,,-99.99,,2013-10-18 16:53:00,
2013-10-18 13:22:00,90.0,66.0,29.96,SW,222,4.0,7.0,46,99.99,,,-99.99,,2013-10-18 17:22:00,
2013-10-18 13:52:00,91.0,67.0,29.94,South,191,3.0,6.0,45,99.99,,,-99.99,,2013-10-18 17:52:00,
2013-10-18 14:22:00,88.0,66.0,29.93,SSE,160,4.0,9.0,49,99.99,,,-99.99,,2013-10-18 18:22:00,
2013-10-18 14:52:00,90.0,68.0,29.91,East,101,2.0,6.0,48,99.99,,,-99.99,,2013-10-18 18:52:00,
2013-10-18 15:22:00,88.0,68.0,29.90,ESE,118,1.0,4.0,51,99.99,,,-99.99,,2013-10-18 19:22:00,
2013-10-18 15:52:00,88.0,68.0,29.90,ESE,121,4.0,7.0,51,99.99,,,-99.99,,2013-10-18 19:52:00,
2013-10-18 16:22:00,88.0,66.0,29.90,South,191,0.0,4.0,49,99.99,,,-99.99,,2013-10-18 20:22:00,
2013-10-18 16:52:00,89.0,67.0,29.90,SW,226,2.0,5.0,48,99.99,,,-99.99,,2013-10-18 20:52:00,
2013-10-18 17:22:00,90.0,68.0,29.90,West,264,1.0,4.0,49,99.99,,,-99.99,,2013-10-18 21:22:00,
2013-10-18 17:54:00,87.0,68.0,29.90,North,0,0.0,0.0,53,99.99,,,-99.99,,2013-10-18 21:54:00,
2013-10-18 18:24:00,87.0,66.0,29.90,SSE,167,2.0,5.0,50,99.99,,,-99.99,,2013-10-18 22:24:00,
2013-10-18 18:54:00,85.0,71.0,29.91,ESE,105,7.0,11.0,64,99.99,,,-99.99,,2013-10-18 22:54:00,
2013-10-18 19:23:00,83.0,71.0,29.92,ESE,105,5.0,9.0,68,99.99,,,-99.99,,2013-10-18 23:23:00,
2013-10-18 19:53:00,81.0,71.0,29.93,ESE,113,4.0,6.0,71,99.99,,,-99.99,,2013-10-18 23:53:00,
2013-10-18 20:11:00,80.0,71.0,29.93,ESE,118,5.0,9.0,73,99.99,,,-99.99,,2013-10-19 00:11:00,
2013-10-18 20:22:00,80.0,71.0,29.94,ESE,122,5.0,8.0,75,99.99,,,-99.99,,2013-10-19 00:22:00,
2013-10-18 20:52:00,78.0,71.0,29.94,ESE,108,3.0,7.0,79,99.99,,,-99.99,,2013-10-19 00:52:00,
2013-10-18 21:22:00,78.0,71.0,29.95,ESE,104,3.0,7.0,80,99.99,,,-99.99,,2013-10-19 01:22:00,
2013-10-18 21:53:00,77.0,70.0,29.96,SE,134,3.0,7.0,80,99.99,,,-99.99,,2013-10-19 01:53:00,
2013-10-18 22:22:00,77.0,70.0,29.96,SE,141,4.0,8.0,78,99.99,,,-99.99,,2013-10-19 02:22:00,
2013-10-18 22:42:00,77.0,70.0,29.96,SE,128,3.0,7.0,78,99.99,,,-99.99,,2013-10-19 02:42:00,
2013-10-18 22:52:00,77.0,70.0,29.96,ESE,115,3.0,7.0,79,99.99,,,-99.99,,2013-10-19 02:52:00,
2013-10-18 23:23:00,76.0,70.0,29.97,SE,146,3.0,6.0,81,99.99,,,-99.99,,2013-10-19 03:23:00,
2013-10-18 23:55:00,75.0,69.0,29.96,SSE,155,4.0,7.0,82,99.99,,,-99.99,,2013-10-19 03:55:00,